Terminal Aerodrome Forecast
Issued by NWS

Home | Current Version | Previous Version | Text Only | Print | Product List | Glossary On
Versions: 1 2 3 4 5 6 7 8 9 10 11 12 13 14 15 16 17
207
FTUS44 KJAN 211154
TAFGTR
TAF
KGTR 211154Z 2112/2212 14012KT P6SM -RA BKN035 BKN050
     FM211500 15010KT 5SM RA OVC025
     FM212200 11006KT 5SM SHRA BKN008 OVC090
     FM220100 09005KT 4SM BR VCSH BKN003 OVC025=

USA.gov is the U.S. government's official web portal to all federal, state and local government web resources and services.